sensor_id;sensor_type;location;lat;lon;timestamp;temperature;humidity
78988;DHT22;74752;44.786;37.680;2024-01-16T00:00:25;10.52;74.38
78988;DHT22;74752;44.786;37.680;2024-01-16T00:01:28;10.49;74.47
78988;DHT22;74752;44.786;37.680;2024-01-16T00:02:47;10.52;74.33
78988;DHT22;74752;44.786;37.680;2024-01-16T00:03:50;10.52;74.47
78988;DHT22;74752;44.786;37.680;2024-01-16T00:05:03;10.57;74.22
78988;DHT22;74752;44.786;37.680;2024-01-16T00:06:05;10.55;74.57
78988;DHT22;74752;44.786;37.680;2024-01-16T00:07:17;10.58;74.11
78988;DHT22;74752;44.786;37.680;2024-01-16T00:08:20;10.56;73.59
78988;DHT22;74752;44.786;37.680;2024-01-16T00:09:32;10.59;73.88
78988;DHT22;74752;44.786;37.680;2024-01-16T00:10:36;10.58;73.89
78988;DHT22;74752;44.786;37.680;2024-01-16T00:11:41;10.63;73.79
78988;DHT22;74752;44.786;37.680;2024-01-16T00:12:51;10.63;73.93
78988;DHT22;74752;44.786;37.680;2024-01-16T00:13:56;10.66;74.04
78988;DHT22;74752;44.786;37.680;2024-01-16T00:15:06;10.68;74.37
78988;DHT22;74752;44.786;37.680;2024-01-16T00:16:10;10.68;74.54
78988;DHT22;74752;44.786;37.680;2024-01-16T00:17:12;10.67;74.25
78988;DHT22;74752;44.786;37.680;2024-01-16T00:18:14;10.69;73.67
78988;DHT22;74752;44.786;37.680;2024-01-16T00:19:16;10.72;74.05
78988;DHT22;74752;44.786;37.680;2024-01-16T00:20:34;10.72;74.38
78988;DHT22;74752;44.786;37.680;2024-01-16T00:21:46;10.71;74.36
78988;DHT22;74752;44.786;37.680;2024-01-16T00:22:57;10.71;74.32
78988;DHT22;74752;44.786;37.680;2024-01-16T00:24:00;10.72;74.44
78988;DHT22;74752;44.786;37.680;2024-01-16T00:25:06;10.70;75.00
78988;DHT22;74752;44.786;37.680;2024-01-16T00:26:21;10.71;75.26
78988;DHT22;74752;44.786;37.680;2024-01-16T00:27:25;10.71;75.44
78988;DHT22;74752;44.786;37.680;2024-01-16T00:28:27;10.70;75.59
78988;DHT22;74752;44.786;37.680;2024-01-16T00:29:30;10.65;75.58
78988;DHT22;74752;44.786;37.680;2024-01-16T00:30:32;10.66;75.83
78988;DHT22;74752;44.786;37.680;2024-01-16T00:31:35;10.64;76.03
78988;DHT22;74752;44.786;37.680;2024-01-16T00:32:37;10.64;76.23
78988;DHT22;74752;44.786;37.680;2024-01-16T00:33:40;10.63;76.65
78988;DHT22;74752;44.786;37.680;2024-01-16T00:34:43;10.62;76.68
78988;DHT22;74752;44.786;37.680;2024-01-16T00:35:45;10.59;76.72
78988;DHT22;74752;44.786;37.680;2024-01-16T00:36:47;10.58;77.09
78988;DHT22;74752;44.786;37.680;2024-01-16T00:37:55;10.57;77.31
78988;DHT22;74752;44.786;37.680;2024-01-16T00:39:03;10.55;77.49
78988;DHT22;74752;44.786;37.680;2024-01-16T00:40:06;10.54;77.37
78988;DHT22;74752;44.786;37.680;2024-01-16T00:41:12;10.52;77.64
78988;DHT22;74752;44.786;37.680;2024-01-16T00:42:15;10.49;77.97
78988;DHT22;74752;44.786;37.680;2024-01-16T00:43:17;10.48;78.13
78988;DHT22;74752;44.786;37.680;2024-01-16T00:44:20;10.46;78.10
78988;DHT22;74752;44.786;37.680;2024-01-16T00:45:24;10.44;78.15
78988;DHT22;74752;44.786;37.680;2024-01-16T00:46:26;10.42;78.47
78988;DHT22;74752;44.786;37.680;2024-01-16T00:47:37;10.42;78.18
78988;DHT22;74752;44.786;37.680;2024-01-16T00:48:45;10.42;78.28
78988;DHT22;74752;44.786;37.680;2024-01-16T00:49:47;10.41;78.35
78988;DHT22;74752;44.786;37.680;2024-01-16T00:50:58;10.43;78.54
78988;DHT22;74752;44.786;37.680;2024-01-16T00:52:04;10.42;78.89
78988;DHT22;74752;44.786;37.680;2024-01-16T00:53:06;10.45;78.53
78988;DHT22;74752;44.786;37.680;2024-01-16T00:54:38;10.45;78.66
78988;DHT22;74752;44.786;37.680;2024-01-16T00:55:44;10.40;78.60
78988;DHT22;74752;44.786;37.680;2024-01-16T00:56:46;10.38;78.82
78988;DHT22;74752;44.786;37.680;2024-01-16T00:57:52;10.40;78.94
78988;DHT22;74752;44.786;37.680;2024-01-16T00:58:55;10.41;78.99
78988;DHT22;74752;44.786;37.680;2024-01-16T00:59:57;10.41;79.35
78988;DHT22;74752;44.786;37.680;2024-01-16T01:01:01;10.42;79.57
78988;DHT22;74752;44.786;37.680;2024-01-16T01:02:07;10.41;79.47
78988;DHT22;74752;44.786;37.680;2024-01-16T01:03:12;10.41;79.62
78988;DHT22;74752;44.786;37.680;2024-01-16T01:04:14;10.45;79.75
78988;DHT22;74752;44.786;37.680;2024-01-16T01:05:17;10.45;79.66
78988;DHT22;74752;44.786;37.680;2024-01-16T01:06:20;10.44;79.43
78988;DHT22;74752;44.786;37.680;2024-01-16T01:07:22;10.44;79.53
78988;DHT22;74752;44.786;37.680;2024-01-16T01:08:36;10.48;79.44
78988;DHT22;74752;44.786;37.680;2024-01-16T01:09:40;10.48;79.49
78988;DHT22;74752;44.786;37.680;2024-01-16T01:10:44;10.48;79.52
78988;DHT22;74752;44.786;37.680;2024-01-16T01:11:46;10.51;79.58
78988;DHT22;74752;44.786;37.680;2024-01-16T01:13:05;10.52;79.16
78988;DHT22;74752;44.786;37.680;2024-01-16T01:14:16;10.50;79.49
78988;DHT22;74752;44.786;37.680;2024-01-16T01:15:20;10.48;79.23
78988;DHT22;74752;44.786;37.680;2024-01-16T01:16:26;10.45;79.53
78988;DHT22;74752;44.786;37.680;2024-01-16T01:17:28;10.45;79.72
78988;DHT22;74752;44.786;37.680;2024-01-16T01:18:33;10.50;79.69
78988;DHT22;74752;44.786;37.680;2024-01-16T01:19:38;10.48;79.98
78988;DHT22;74752;44.786;37.680;2024-01-16T01:20:41;10.45;79.80
78988;DHT22;74752;44.786;37.680;2024-01-16T01:21:44;10.43;79.95
78988;DHT22;74752;44.786;37.680;2024-01-16T01:22:49;10.43;80.07
78988;DHT22;74752;44.786;37.680;2024-01-16T01:23:52;10.43;80.18
78988;DHT22;74752;44.786;37.680;2024-01-16T01:24:58;10.44;80.00
78988;DHT22;74752;44.786;37.680;2024-01-16T01:26:10;10.41;80.24
78988;DHT22;74752;44.786;37.680;2024-01-16T01:27:34;10.38;80.45
78988;DHT22;74752;44.786;37.680;2024-01-16T01:28:43;10.37;80.25
78988;DHT22;74752;44.786;37.680;2024-01-16T01:29:48;10.36;80.10
78988;DHT22;74752;44.786;37.680;2024-01-16T01:30:51;10.37;79.98
78988;DHT22;74752;44.786;37.680;2024-01-16T01:31:55;10.36;80.13
78988;DHT22;74752;44.786;37.680;2024-01-16T01:32:57;10.35;79.80
78988;DHT22;74752;44.786;37.680;2024-01-16T01:34:00;10.35;79.19
78988;DHT22;74752;44.786;37.680;2024-01-16T01:35:11;10.35;79.30
78988;DHT22;74752;44.786;37.680;2024-01-16T01:36:16;10.38;79.16
78988;DHT22;74752;44.786;37.680;2024-01-16T01:37:17;10.39;79.24
78988;DHT22;74752;44.786;37.680;2024-01-16T01:38:20;10.40;79.33
78988;DHT22;74752;44.786;37.680;2024-01-16T01:39:23;10.40;79.25
78988;DHT22;74752;44.786;37.680;2024-01-16T01:40:27;10.41;79.10
78988;DHT22;74752;44.786;37.680;2024-01-16T01:41:33;10.40;79.22
78988;DHT22;74752;44.786;37.680;2024-01-16T01:42:35;10.38;79.49
78988;DHT22;74752;44.786;37.680;2024-01-16T01:43:37;10.39;79.42
78988;DHT22;74752;44.786;37.680;2024-01-16T01:44:40;10.41;79.25
78988;DHT22;74752;44.786;37.680;2024-01-16T01:46:09;10.41;79.24
78988;DHT22;74752;44.786;37.680;2024-01-16T01:47:15;10.43;79.03
78988;DHT22;74752;44.786;37.680;2024-01-16T01:48:20;10.41;78.99
78988;DHT22;74752;44.786;37.680;2024-01-16T01:49:23;10.42;79.15
78988;DHT22;74752;44.786;37.680;2024-01-16T01:50:35;10.41;79.49
78988;DHT22;74752;44.786;37.680;2024-01-16T01:51:37;10.40;79.63
78988;DHT22;74752;44.786;37.680;2024-01-16T01:52:43;10.41;79.70
78988;DHT22;74752;44.786;37.680;2024-01-16T01:53:49;10.45;79.52
78988;DHT22;74752;44.786;37.680;2024-01-16T01:55:14;10.48;79.52
78988;DHT22;74752;44.786;37.680;2024-01-16T01:56:20;10.51;79.49
78988;DHT22;74752;44.786;37.680;2024-01-16T01:57:24;10.51;79.33
78988;DHT22;74752;44.786;37.680;2024-01-16T01:58:26;10.52;79.03
78988;DHT22;74752;44.786;37.680;2024-01-16T01:59:32;10.53;79.14
78988;DHT22;74752;44.786;37.680;2024-01-16T02:00:35;10.54;79.24
78988;DHT22;74752;44.786;37.680;2024-01-16T02:01:37;10.55;79.14
78988;DHT22;74752;44.786;37.680;2024-01-16T02:02:42;10.52;79.22
78988;DHT22;74752;44.786;37.680;2024-01-16T02:04:06;10.53;79.26
78988;DHT22;74752;44.786;37.680;2024-01-16T02:05:27;10.54;79.61
78988;DHT22;74752;44.786;37.680;2024-01-16T02:06:30;10.57;79.60
78988;DHT22;74752;44.786;37.680;2024-01-16T02:07:33;10.57;79.42
78988;DHT22;74752;44.786;37.680;2024-01-16T02:08:45;10.55;79.62
78988;DHT22;74752;44.786;37.680;2024-01-16T02:09:56;10.57;79.55
78988;DHT22;74752;44.786;37.680;2024-01-16T02:11:07;10.58;79.49
78988;DHT22;74752;44.786;37.680;2024-01-16T02:12:15;10.58;79.59
78988;DHT22;74752;44.786;37.680;2024-01-16T02:13:20;10.55;79.75
78988;DHT22;74752;44.786;37.680;2024-01-16T02:14:32;10.55;79.59
78988;DHT22;74752;44.786;37.680;2024-01-16T02:15:34;10.58;79.69
78988;DHT22;74752;44.786;37.680;2024-01-16T02:16:42;10.56;79.73
78988;DHT22;74752;44.786;37.680;2024-01-16T02:17:56;10.57;79.46
78988;DHT22;74752;44.786;37.680;2024-01-16T02:19:07;10.56;79.76
78988;DHT22;74752;44.786;37.680;2024-01-16T02:20:10;10.58;79.87
78988;DHT22;74752;44.786;37.680;2024-01-16T02:21:36;10.58;79.90
78988;DHT22;74752;44.786;37.680;2024-01-16T02:22:45;10.59;79.78
78988;DHT22;74752;44.786;37.680;2024-01-16T02:23:50;10.56;79.99
78988;DHT22;74752;44.786;37.680;2024-01-16T02:24:53;10.57;80.05
78988;DHT22;74752;44.786;37.680;2024-01-16T02:25:55;10.57;80.36
78988;DHT22;74752;44.786;37.680;2024-01-16T02:26:57;10.58;80.20
78988;DHT22;74752;44.786;37.680;2024-01-16T02:28:01;10.58;80.32
78988;DHT22;74752;44.786;37.680;2024-01-16T02:29:04;10.60;80.36
78988;DHT22;74752;44.786;37.680;2024-01-16T02:30:06;10.62;80.34
78988;DHT22;74752;44.786;37.680;2024-01-16T02:31:17;10.62;80.23
78988;DHT22;74752;44.786;37.680;2024-01-16T02:32:37;10.62;80.59
78988;DHT22;74752;44.786;37.680;2024-01-16T02:33:40;10.64;80.52
78988;DHT22;74752;44.786;37.680;2024-01-16T02:34:44;10.64;80.52
78988;DHT22;74752;44.786;37.680;2024-01-16T02:35:46;10.64;80.73
78988;DHT22;74752;44.786;37.680;2024-01-16T02:36:47;10.67;80.70
78988;DHT22;74752;44.786;37.680;2024-01-16T02:37:55;10.66;80.92
78988;DHT22;74752;44.786;37.680;2024-01-16T02:38:57;10.64;80.95
78988;DHT22;74752;44.786;37.680;2024-01-16T02:40:00;10.66;81.06
78988;DHT22;74752;44.786;37.680;2024-01-16T02:41:16;10.68;81.18
78988;DHT22;74752;44.786;37.680;2024-01-16T02:42:17;10.68;81.23
78988;DHT22;74752;44.786;37.680;2024-01-16T02:43:19;10.70;81.33
78988;DHT22;74752;44.786;37.680;2024-01-16T02:44:21;10.71;81.16
78988;DHT22;74752;44.786;37.680;2024-01-16T02:45:24;10.70;81.25
78988;DHT22;74752;44.786;37.680;2024-01-16T02:46:26;10.68;81.45
78988;DHT22;74752;44.786;37.680;2024-01-16T02:47:27;10.70;81.42
78988;DHT22;74752;44.786;37.680;2024-01-16T02:48:30;10.72;81.52
78988;DHT22;74752;44.786;37.680;2024-01-16T02:49:38;10.72;81.79
78988;DHT22;74752;44.786;37.680;2024-01-16T02:50:41;10.72;81.75
78988;DHT22;74752;44.786;37.680;2024-01-16T02:51:44;10.72;81.73
78988;DHT22;74752;44.786;37.680;2024-01-16T02:52:55;10.73;82.04
78988;DHT22;74752;44.786;37.680;2024-01-16T02:53:56;10.72;81.65
78988;DHT22;74752;44.786;37.680;2024-01-16T02:55:07;10.73;81.54
78988;DHT22;74752;44.786;37.680;2024-01-16T02:56:10;10.70;81.79
78988;DHT22;74752;44.786;37.680;2024-01-16T02:57:12;10.69;82.15
78988;DHT22;74752;44.786;37.680;2024-01-16T02:58:14;10.71;82.38
78988;DHT22;74752;44.786;37.680;2024-01-16T02:59:17;10.72;82.11
78988;DHT22;74752;44.786;37.680;2024-01-16T03:00:22;10.73;81.62
78988;DHT22;74752;44.786;37.680;2024-01-16T03:01:27;10.72;81.97
78988;DHT22;74752;44.786;37.680;2024-01-16T03:02:32;10.71;81.59
78988;DHT22;74752;44.786;37.680;2024-01-16T03:03:55;10.71;81.78
78988;DHT22;74752;44.786;37.680;2024-01-16T03:05:01;10.72;81.83
78988;DHT22;74752;44.786;37.680;2024-01-16T03:06:09;10.71;81.61
78988;DHT22;74752;44.786;37.680;2024-01-16T03:07:20;10.68;81.83
78988;DHT22;74752;44.786;37.680;2024-01-16T03:08:22;10.68;82.10
78988;DHT22;74752;44.786;37.680;2024-01-16T03:09:25;10.69;81.62
78988;DHT22;74752;44.786;37.680;2024-01-16T03:10:30;10.69;81.85
78988;DHT22;74752;44.786;37.680;2024-01-16T03:11:44;10.70;81.59
78988;DHT22;74752;44.786;37.680;2024-01-16T03:12:46;10.70;81.85
78988;DHT22;74752;44.786;37.680;2024-01-16T03:13:47;10.69;81.55
78988;DHT22;74752;44.786;37.680;2024-01-16T03:14:51;10.71;81.68
78988;DHT22;74752;44.786;37.680;2024-01-16T03:15:57;10.68;81.57
78988;DHT22;74752;44.786;37.680;2024-01-16T03:17:02;10.69;81.85
78988;DHT22;74752;44.786;37.680;2024-01-16T03:18:04;10.70;81.94
78988;DHT22;74752;44.786;37.680;2024-01-16T03:19:06;10.71;81.64
78988;DHT22;74752;44.786;37.680;2024-01-16T03:20:14;10.68;81.68
78988;DHT22;74752;44.786;37.680;2024-01-16T03:21:16;10.71;81.29
78988;DHT22;74752;44.786;37.680;2024-01-16T03:22:17;10.72;81.10
78988;DHT22;74752;44.786;37.680;2024-01-16T03:23:21;10.73;80.78
78988;DHT22;74752;44.786;37.680;2024-01-16T03:24:23;10.75;81.20
78988;DHT22;74752;44.786;37.680;2024-01-16T03:25:25;10.74;81.32
78988;DHT22;74752;44.786;37.680;2024-01-16T03:26:27;10.71;81.52
78988;DHT22;74752;44.786;37.680;2024-01-16T03:27:37;10.70;81.43
78988;DHT22;74752;44.786;37.680;2024-01-16T03:28:42;10.72;81.65
78988;DHT22;74752;44.786;37.680;2024-01-16T03:30:03;10.69;81.76
78988;DHT22;74752;44.786;37.680;2024-01-16T03:31:05;10.69;82.07
78988;DHT22;74752;44.786;37.680;2024-01-16T03:32:25;10.70;82.04
78988;DHT22;74752;44.786;37.680;2024-01-16T03:33:27;10.70;81.65
78988;DHT22;74752;44.786;37.680;2024-01-16T03:34:31;10.71;81.99
78988;DHT22;74752;44.786;37.680;2024-01-16T03:35:33;10.70;81.97
78988;DHT22;74752;44.786;37.680;2024-01-16T03:36:35;10.69;81.64
78988;DHT22;74752;44.786;37.680;2024-01-16T03:37:38;10.71;81.47
78988;DHT22;74752;44.786;37.680;2024-01-16T03:38:43;10.72;81.37
78988;DHT22;74752;44.786;37.680;2024-01-16T03:39:45;10.71;81.12
78988;DHT22;74752;44.786;37.680;2024-01-16T03:40:50;10.71;81.61
78988;DHT22;74752;44.786;37.680;2024-01-16T03:41:55;10.75;81.43
78988;DHT22;74752;44.786;37.680;2024-01-16T03:42:56;10.78;81.19
78988;DHT22;74752;44.786;37.680;2024-01-16T03:43:58;10.78;81.27
78988;DHT22;74752;44.786;37.680;2024-01-16T03:45:00;10.79;81.29
78988;DHT22;74752;44.786;37.680;2024-01-16T03:46:04;10.81;81.39
78988;DHT22;74752;44.786;37.680;2024-01-16T03:47:15;10.82;81.17
78988;DHT22;74752;44.786;37.680;2024-01-16T03:48:17;10.83;80.69
78988;DHT22;74752;44.786;37.680;2024-01-16T03:49:21;10.85;80.87
78988;DHT22;74752;44.786;37.680;2024-01-16T03:50:24;10.84;80.76
78988;DHT22;74752;44.786;37.680;2024-01-16T03:51:25;10.84;80.94
78988;DHT22;74752;44.786;37.680;2024-01-16T03:52:27;10.85;80.82
78988;DHT22;74752;44.786;37.680;2024-01-16T03:53:34;10.84;81.33
78988;DHT22;74752;44.786;37.680;2024-01-16T03:54:36;10.83;80.97
78988;DHT22;74752;44.786;37.680;2024-01-16T03:55:37;10.81;81.65
78988;DHT22;74752;44.786;37.680;2024-01-16T03:56:43;10.83;81.75
78988;DHT22;74752;44.786;37.680;2024-01-16T03:57:48;10.80;82.02
78988;DHT22;74752;44.786;37.680;2024-01-16T03:59:05;10.80;81.93
78988;DHT22;74752;44.786;37.680;2024-01-16T04:00:17;10.84;81.75
78988;DHT22;74752;44.786;37.680;2024-01-16T04:01:31;10.85;81.27
78988;DHT22;74752;44.786;37.680;2024-01-16T04:02:37;10.85;81.26
78988;DHT22;74752;44.786;37.680;2024-01-16T04:03:42;10.85;81.49
78988;DHT22;74752;44.786;37.680;2024-01-16T04:04:45;10.85;81.38
78988;DHT22;74752;44.786;37.680;2024-01-16T04:05:46;10.83;80.98
78988;DHT22;74752;44.786;37.680;2024-01-16T04:06:56;10.86;80.69
78988;DHT22;74752;44.786;37.680;2024-01-16T04:08:02;10.88;80.49
78988;DHT22;74752;44.786;37.680;2024-01-16T04:09:08;10.88;80.49
78988;DHT22;74752;44.786;37.680;2024-01-16T04:10:11;10.88;80.66
78988;DHT22;74752;44.786;37.680;2024-01-16T04:11:13;10.92;80.24
78988;DHT22;74752;44.786;37.680;2024-01-16T04:12:15;10.90;79.95
78988;DHT22;74752;44.786;37.680;2024-01-16T04:13:17;10.94;80.00
78988;DHT22;74752;44.786;37.680;2024-01-16T04:14:22;10.94;80.05
78988;DHT22;74752;44.786;37.680;2024-01-16T04:15:24;10.93;80.14
78988;DHT22;74752;44.786;37.680;2024-01-16T04:16:26;10.93;80.07
78988;DHT22;74752;44.786;37.680;2024-01-16T04:17:37;10.94;80.06
78988;DHT22;74752;44.786;37.680;2024-01-16T04:18:41;10.92;80.06
78988;DHT22;74752;44.786;37.680;2024-01-16T04:19:46;10.90;80.20
78988;DHT22;74752;44.786;37.680;2024-01-16T04:20:51;10.94;80.12
78988;DHT22;74752;44.786;37.680;2024-01-16T04:21:53;10.94;79.46
78988;DHT22;74752;44.786;37.680;2024-01-16T04:22:56;10.93;79.58
78988;DHT22;74752;44.786;37.680;2024-01-16T04:24:10;10.93;79.66
78988;DHT22;74752;44.786;37.680;2024-01-16T04:25:16;10.92;79.59
78988;DHT22;74752;44.786;37.680;2024-01-16T04:26:22;10.92;79.53
78988;DHT22;74752;44.786;37.680;2024-01-16T04:27:31;10.92;79.48
78988;DHT22;74752;44.786;37.680;2024-01-16T04:28:33;10.90;79.60
78988;DHT22;74752;44.786;37.680;2024-01-16T04:29:36;10.94;79.63
78988;DHT22;74752;44.786;37.680;2024-01-16T04:30:41;10.92;78.96
78988;DHT22;74752;44.786;37.680;2024-01-16T04:31:44;10.89;78.92
78988;DHT22;74752;44.786;37.680;2024-01-16T04:32:47;10.90;79.07
78988;DHT22;74752;44.786;37.680;2024-01-16T04:33:50;10.90;78.86
78988;DHT22;74752;44.786;37.680;2024-01-16T04:34:57;10.90;78.90
78988;DHT22;74752;44.786;37.680;2024-01-16T04:36:02;10.89;78.93
78988;DHT22;74752;44.786;37.680;2024-01-16T04:37:05;10.90;78.53
78988;DHT22;74752;44.786;37.680;2024-01-16T04:38:06;10.92;78.15
78988;DHT22;74752;44.786;37.680;2024-01-16T04:39:16;10.93;78.26
78988;DHT22;74752;44.786;37.680;2024-01-16T04:40:17;10.94;78.05
78988;DHT22;74752;44.786;37.680;2024-01-16T04:41:20;10.97;78.21
78988;DHT22;74752;44.786;37.680;2024-01-16T04:42:31;10.99;78.45
78988;DHT22;74752;44.786;37.680;2024-01-16T04:43:34;10.98;78.14
78988;DHT22;74752;44.786;37.680;2024-01-16T04:44:41;11.02;78.17
78988;DHT22;74752;44.786;37.680;2024-01-16T04:45:46;10.99;77.95
78988;DHT22;74752;44.786;37.680;2024-01-16T04:46:47;10.99;77.98
78988;DHT22;74752;44.786;37.680;2024-01-16T04:47:50;10.96;77.91
78988;DHT22;74752;44.786;37.680;2024-01-16T04:48:52;10.99;77.84
78988;DHT22;74752;44.786;37.680;2024-01-16T04:49:54;11.00;77.76
78988;DHT22;74752;44.786;37.680;2024-01-16T04:50:56;11.04;77.75
78988;DHT22;74752;44.786;37.680;2024-01-16T04:52:06;11.04;77.91
78988;DHT22;74752;44.786;37.680;2024-01-16T04:53:11;11.01;77.77
78988;DHT22;74752;44.786;37.680;2024-01-16T04:54:23;11.00;78.10
78988;DHT22;74752;44.786;37.680;2024-01-16T04:55:44;11.01;78.18
78988;DHT22;74752;44.786;37.680;2024-01-16T04:56:46;11.01;78.09
78988;DHT22;74752;44.786;37.680;2024-01-16T04:57:53;11.02;78.18
78988;DHT22;74752;44.786;37.680;2024-01-16T04:58:55;11.02;78.00
78988;DHT22;74752;44.786;37.680;2024-01-16T04:59:56;11.03;77.69
78988;DHT22;74752;44.786;37.680;2024-01-16T05:00:58;11.03;77.99
78988;DHT22;74752;44.786;37.680;2024-01-16T05:02:00;11.05;77.98
78988;DHT22;74752;44.786;37.680;2024-01-16T05:03:05;11.07;78.10
78988;DHT22;74752;44.786;37.680;2024-01-16T05:04:06;11.08;78.24
78988;DHT22;74752;44.786;37.680;2024-01-16T05:05:10;11.09;78.18
78988;DHT22;74752;44.786;37.680;2024-01-16T05:06:18;11.08;78.08
78988;DHT22;74752;44.786;37.680;2024-01-16T05:07:24;11.08;78.17
78988;DHT22;74752;44.786;37.680;2024-01-16T05:08:36;11.09;78.31
78988;DHT22;74752;44.786;37.680;2024-01-16T05:09:41;11.11;78.11
78988;DHT22;74752;44.786;37.680;2024-01-16T05:10:43;11.11;78.13
78988;DHT22;74752;44.786;37.680;2024-01-16T05:11:45;11.12;78.27
78988;DHT22;74752;44.786;37.680;2024-01-16T05:12:47;11.13;78.32
78988;DHT22;74752;44.786;37.680;2024-01-16T05:13:50;11.18;78.16
78988;DHT22;74752;44.786;37.680;2024-01-16T05:15:11;11.14;78.52
78988;DHT22;74752;44.786;37.680;2024-01-16T05:16:13;11.16;78.60
78988;DHT22;74752;44.786;37.680;2024-01-16T05:17:15;11.14;78.58
78988;DHT22;74752;44.786;37.680;2024-01-16T05:18:25;11.14;78.68
78988;DHT22;74752;44.786;37.680;2024-01-16T05:19:30;11.12;78.88
78988;DHT22;74752;44.786;37.680;2024-01-16T05:20:32;11.15;78.89
78988;DHT22;74752;44.786;37.680;2024-01-16T05:21:34;11.15;78.84
78988;DHT22;74752;44.786;37.680;2024-01-16T05:22:45;11.15;78.77
78988;DHT22;74752;44.786;37.680;2024-01-16T05:23:47;11.19;78.87
78988;DHT22;74752;44.786;37.680;2024-01-16T05:24:50;11.17;78.57
78988;DHT22;74752;44.786;37.680;2024-01-16T05:25:55;11.16;78.62
78988;DHT22;74752;44.786;37.680;2024-01-16T05:26:56;11.16;78.92
78988;DHT22;74752;44.786;37.680;2024-01-16T05:28:02;11.16;78.80
78988;DHT22;74752;44.786;37.680;2024-01-16T05:29:04;11.18;78.92
78988;DHT22;74752;44.786;37.680;2024-01-16T05:30:06;11.19;78.95
78988;DHT22;74752;44.786;37.680;2024-01-16T05:31:10;11.18;78.95
78988;DHT22;74752;44.786;37.680;2024-01-16T05:32:13;11.17;79.21
78988;DHT22;74752;44.786;37.680;2024-01-16T05:33:15;11.19;78.98
78988;DHT22;74752;44.786;37.680;2024-01-16T05:34:23;11.22;78.95
78988;DHT22;74752;44.786;37.680;2024-01-16T05:35:28;11.20;78.72
78988;DHT22;74752;44.786;37.680;2024-01-16T05:36:40;11.22;78.85
78988;DHT22;74752;44.786;37.680;2024-01-16T05:37:42;11.25;78.77
78988;DHT22;74752;44.786;37.680;2024-01-16T05:38:45;11.23;78.81
78988;DHT22;74752;44.786;37.680;2024-01-16T05:39:56;11.25;78.69
78988;DHT22;74752;44.786;37.680;2024-01-16T05:41:19;11.28;78.87
78988;DHT22;74752;44.786;37.680;2024-01-16T05:42:32;11.30;78.89
78988;DHT22;74752;44.786;37.680;2024-01-16T05:43:35;11.34;78.78
78988;DHT22;74752;44.786;37.680;2024-01-16T05:44:37;11.36;78.68
78988;DHT22;74752;44.786;37.680;2024-01-16T05:45:40;11.39;78.55
78988;DHT22;74752;44.786;37.680;2024-01-16T05:46:43;11.41;78.17
78988;DHT22;74752;44.786;37.680;2024-01-16T05:47:49;11.44;78.16
78988;DHT22;74752;44.786;37.680;2024-01-16T05:48:52;11.45;78.48
78988;DHT22;74752;44.786;37.680;2024-01-16T05:49:57;11.44;78.57
78988;DHT22;74752;44.786;37.680;2024-01-16T05:51:00;11.45;78.51
78988;DHT22;74752;44.786;37.680;2024-01-16T05:52:06;11.41;78.76
78988;DHT22;74752;44.786;37.680;2024-01-16T05:53:12;11.43;78.76
78988;DHT22;74752;44.786;37.680;2024-01-16T05:54:15;11.46;78.74
78988;DHT22;74752;44.786;37.680;2024-01-16T05:55:26;11.46;78.69
78988;DHT22;74752;44.786;37.680;2024-01-16T05:56:46;11.47;78.59
78988;DHT22;74752;44.786;37.680;2024-01-16T05:58:00;11.45;78.53
78988;DHT22;74752;44.786;37.680;2024-01-16T05:59:05;11.45;78.23
78988;DHT22;74752;44.786;37.680;2024-01-16T06:00:15;11.46;78.43
78988;DHT22;74752;44.786;37.680;2024-01-16T06:01:41;11.48;78.54
78988;DHT22;74752;44.786;37.680;2024-01-16T06:02:55;11.51;78.50
78988;DHT22;74752;44.786;37.680;2024-01-16T06:03:58;11.53;78.69
78988;DHT22;74752;44.786;37.680;2024-01-16T06:05:05;11.55;78.66
78988;DHT22;74752;44.786;37.680;2024-01-16T06:06:12;11.53;78.73
78988;DHT22;74752;44.786;37.680;2024-01-16T06:07:15;11.57;78.56
78988;DHT22;74752;44.786;37.680;2024-01-16T06:08:20;11.55;78.18
78988;DHT22;74752;44.786;37.680;2024-01-16T06:09:48;11.57;78.15
78988;DHT22;74752;44.786;37.680;2024-01-16T06:10:55;11.57;78.30
78988;DHT22;74752;44.786;37.680;2024-01-16T06:12:06;11.57;78.51
78988;DHT22;74752;44.786;37.680;2024-01-16T06:13:22;11.59;78.30
78988;DHT22;74752;44.786;37.680;2024-01-16T06:14:35;11.59;78.44
78988;DHT22;74752;44.786;37.680;2024-01-16T06:15:39;11.58;78.53
78988;DHT22;74752;44.786;37.680;2024-01-16T06:16:48;11.60;78.56
78988;DHT22;74752;44.786;37.680;2024-01-16T06:18:03;11.60;78.54
78988;DHT22;74752;44.786;37.680;2024-01-16T06:19:06;11.62;78.56
78988;DHT22;74752;44.786;37.680;2024-01-16T06:20:09;11.67;78.30
78988;DHT22;74752;44.786;37.680;2024-01-16T06:21:13;11.69;78.14
78988;DHT22;74752;44.786;37.680;2024-01-16T06:22:16;11.69;78.41
78988;DHT22;74752;44.786;37.680;2024-01-16T06:23:20;11.69;77.94
78988;DHT22;74752;44.786;37.680;2024-01-16T06:24:23;11.73;78.36
78988;DHT22;74752;44.786;37.680;2024-01-16T06:25:26;11.74;78.53
78988;DHT22;74752;44.786;37.680;2024-01-16T06:26:28;11.77;78.51
78988;DHT22;74752;44.786;37.680;2024-01-16T06:27:35;11.77;78.57
78988;DHT22;74752;44.786;37.680;2024-01-16T06:28:37;11.77;78.75
78988;DHT22;74752;44.786;37.680;2024-01-16T06:29:43;11.79;78.67
78988;DHT22;74752;44.786;37.680;2024-01-16T06:30:48;11.79;78.69
78988;DHT22;74752;44.786;37.680;2024-01-16T06:32:12;11.82;78.72
78988;DHT22;74752;44.786;37.680;2024-01-16T06:33:14;11.83;78.69
78988;DHT22;74752;44.786;37.680;2024-01-16T06:34:16;11.88;78.56
78988;DHT22;74752;44.786;37.680;2024-01-16T06:35:18;11.89;78.72
78988;DHT22;74752;44.786;37.680;2024-01-16T06:36:20;11.88;79.00
78988;DHT22;74752;44.786;37.680;2024-01-16T06:37:31;11.96;78.81
78988;DHT22;74752;44.786;37.680;2024-01-16T06:38:33;11.97;78.76
78988;DHT22;74752;44.786;37.680;2024-01-16T06:39:35;11.98;78.77
78988;DHT22;74752;44.786;37.680;2024-01-16T06:40:37;12.00;78.69
78988;DHT22;74752;44.786;37.680;2024-01-16T06:41:41;12.03;78.56
78988;DHT22;74752;44.786;37.680;2024-01-16T06:42:43;12.02;78.54
78988;DHT22;74752;44.786;37.680;2024-01-16T06:43:46;12.05;78.70
78988;DHT22;74752;44.786;37.680;2024-01-16T06:44:54;12.10;78.75
78988;DHT22;74752;44.786;37.680;2024-01-16T06:46:00;12.14;78.13
78988;DHT22;74752;44.786;37.680;2024-01-16T06:47:03;12.12;78.20
78988;DHT22;74752;44.786;37.680;2024-01-16T06:48:08;12.15;78.28
78988;DHT22;74752;44.786;37.680;2024-01-16T06:49:13;12.17;78.27